Flight Track Log - Related Links

Times and Time Zones

All times are in EDT time to prevent confusion due to time zone crossing. See the N682RW flight status page for this flight to view local times or setup timezone preferences in your user account.

Time Position Orientation Groundspeed Altitude Reporting Facility
EDT Latitude Longitude Course Direction KTS MPH feet Rate Location/Type
Sun 12:15:23 PM 49.1667 -123.2667 90° East 200 230 2,700  Level Vancouver Center
Sun 12:16:23 PM 49.1500 -123.3667 256° West 240 276 5,600 3,000 Climbing Vancouver Center
Sun 12:17:23 PM 49.0833 -123.3667 180° South 280 322 8,700 2,700 Climbing Vancouver Center
Sun 12:18:23 PM 49.0500 -123.2667 117° Southeast 320 368 11,000 1,700 Climbing Vancouver Center
Sun 12:19:00 PM 48.9334 -122.1365 90° East  Level FlightAware Approximate
Sun 12:19:23 PM 49.0167 -123.1167 109° East 370 426 12,100  Level Vancouver Center
Sun 12:20:00 PM 48.9333 -121.9412 90° East  Level FlightAware Approximate
Sun 12:20:23 PM 48.9833 -122.9667 109° East 370 426 12,800  Level Vancouver Center
Sun 12:21:23 PM 48.9500 -122.8000 107° East 390 449 14,900 2,150 Climbing Vancouver Center
Sun 12:22:23 PM 48.9333 -122.6333 99° East 420 483 17,100 2,050 Climbing Vancouver Center
Sun 12:23:23 PM 48.9333 -122.4500 90° East 440 506 19,000 2,150 Climbing Vancouver Center
Sun 12:24:23 PM 48.9333 -122.2500 90° East 460 529 21,400 2,050 Climbing Vancouver Center
Sun 12:25:23 PM 48.9333 -122.0500 90° East 470 541 23,100 1,650 Climbing Vancouver Center
Sun 12:26:23 PM 48.9333 -121.8500 90° East 490 564 24,700 1,600 Climbing Vancouver Center
Sun 12:27:23 PM 48.9333 -121.6167 90° East 510 587 26,300 1,450 Climbing Vancouver Center
Sun 12:28:23 PM 48.9500 -121.4167 83° East 520 598 27,600 1,500 Climbing Vancouver Center
Sun 12:29:23 PM 48.9333 -121.1833 96° East 520 598 29,300 1,500 Climbing Vancouver Center
Sun 12:30:23 PM 48.9500 -120.9833 83° East 520 598 30,600 1,350 Climbing Vancouver Center
Sun 12:31:23 PM 48.9833 -120.7500 78° East 510 587 32,000 1,200 Climbing Vancouver Center
Sun 12:32:23 PM 48.9833 -120.5500 90° East 490 564 33,000 500 Climbing Vancouver Center
Sun 12:33:23 PM 49.0167 -120.3333 77° East 500 575 33,000  Level Vancouver Center
Sun 12:34:23 PM 49.0333 -120.1000 84° East 510 587 33,000  Level Vancouver Center
Sun 12:35:23 PM 49.0333 -119.9000 90° East 510 587 33,000  Level Vancouver Center
Sun 12:36:23 PM 49.0667 -119.6667 78° East 510 587 33,000  Level Vancouver Center
Sun 12:37:23 PM 49.0667 -119.4667 90° East 510 587 33,000  Level Vancouver Center
Sun 12:38:23 PM 49.1000 -119.2333 78° East 510 587 33,000  Level Vancouver Center
Sun 12:39:23 PM 49.1000 -119.0333 90° East 510 587 33,000  Level Vancouver Center
Sun 12:40:23 PM 49.1167 -118.8167 83° East 510 587 33,000  Level Vancouver Center
Sun 12:41:23 PM 49.1333 -118.6167 83° East 510 587 33,000  Level Vancouver Center
Sun 12:42:23 PM 49.1500 -118.3833 84° East 510 587 33,000  Level Vancouver Center
Sun 12:43:23 PM 49.1500 -118.1833 90° East 510 587 33,000  Level Vancouver Center
Sun 12:44:23 PM 49.1667 -117.9667 83° East 500 575 33,000  Level Vancouver Center
Sun 12:45:23 PM 49.1833 -117.7500 83° East 510 587 33,000  Level Vancouver Center
Sun 12:46:23 PM 49.2000 -117.5333 83° East 510 587 33,000  Level Vancouver Center
Sun 12:47:23 PM 49.2000 -117.3333 90° East 510 587 33,000  Level Vancouver Center
Sun 12:48:23 PM 49.2000 -117.1000 90° East 510 587 33,000  Level Vancouver Center
Sun 12:49:23 PM 49.2333 -116.8833 77° East 510 587 33,000  Level Vancouver Center
Sun 12:50:23 PM 49.2333 -116.6667 90° East 510 587 33,000  Level Vancouver Center
Sun 12:50:59 PM 49.2333 -116.6000 90° East 510 587 33,000  Level Edmonton Center
Sun 12:51:59 PM 49.2333 -116.3667 90° East 500 575 33,000  Level Edmonton Center
Sun 12:52:23 PM 49.2500 -116.2500 78° East 510 587 33,000  Level Vancouver Center
Sun 12:53:23 PM 49.2500 -116.0167 90° East 510 587 33,000  Level Vancouver Center
Sun 12:54:23 PM 49.2333 -115.8167 97° East 510 587 33,000  Level Vancouver Center
Sun 12:54:59 PM 49.2167 -115.7333 107° East 520 598 33,000  Level Edmonton Center
Sun 12:55:23 PM 49.2333 -115.5833 80° East 520 598 33,000  Level Vancouver Center
Sun 12:56:23 PM 49.2167 -115.3833 97° East 520 598 33,000  Level Vancouver Center
Sun 12:56:59 PM 49.2000 -115.2833 104° East 520 598 33,000  Level Edmonton Center
Sun 12:57:59 PM 49.1667 -115.0667 103° East 510 587 33,000  Level Edmonton Center
Sun 12:58:59 PM 49.1500 -114.8667 97° East 510 587 33,000  Level Edmonton Center
Sun 12:59:59 PM 49.1333 -114.6333 96° East 510 587 33,000  Level Edmonton Center
Sun 01:00:59 PM 49.1167 -114.4167 97° East 510 587 33,000  Level Edmonton Center
Sun 01:01:59 PM 49.1000 -114.2000 97° East 510 587 33,000  Level Edmonton Center
Sun 01:02:59 PM 49.0667 -114.0000 104° East 520 598 33,000  Level Edmonton Center
Sun 01:03:59 PM 49.0500 -113.7833 97° East 520 598 33,000  Level Edmonton Center
Sun 01:04:59 PM 49.0333 -113.5500 96° East 510 587 33,000  Level Edmonton Center
Sun 01:05:59 PM 49.0167 -113.3333 97° East 520 598 33,000  Level Edmonton Center
Sun 01:06:35 PM 49.0425 -113.2006 73° East 518 596 33,000  Level Salt Lake Center
Sun 01:07:36 PM 49.0208 -112.9839 99° East 519 597 33,000  Level Salt Lake Center
Sun 01:07:59 PM 48.9667 -112.9000 135° Southeast 510 587 33,000  Level Edmonton Center
Sun 01:08:59 PM 48.9500 -112.6833 97° East 510 587 33,000  Level Edmonton Center
Sun 01:09:59 PM 48.9333 -112.4833 97° East 510 587 33,000  Level Edmonton Center
Sun 01:10:59 PM 48.9167 -112.2333 96° East 510 587 33,000  Level Edmonton Center
Sun 01:11:59 PM 48.9000 -112.0667 99° East 510 587 33,000  Level Edmonton Center
Sun 01:12:59 PM 48.8667 -111.8167 101° East 510 587 33,000  Level Edmonton Center
Sun 01:13:44 PM 48.8844 -111.6669 80° East 519 597 33,000  Level Salt Lake Center
Sun 01:14:46 PM 48.8611 -111.4544 99° East 515 593 33,000  Level Salt Lake Center
Sun 01:15:47 PM 48.8358 -111.2394 100° East 515 593 33,000  Level Salt Lake Center
Sun 01:16:48 PM 48.8122 -111.0239 99° East 516 594 33,000  Level Salt Lake Center
Sun 01:17:50 PM 48.7875 -110.8103 100° East 516 594 33,000  Level Salt Lake Center
Sun 01:18:51 PM 48.7569 -110.5508 100° East 519 597 33,000  Level Salt Lake Center
Sun 01:19:53 PM 48.7303 -110.3375 101° East 518 596 33,000  Level Salt Lake Center
Sun 01:20:54 PM 48.7047 -110.1236 100° East 517 595 33,000  Level Salt Lake Center
Sun 01:21:56 PM 48.6786 -109.9117 100° East 515 593 33,000  Level Salt Lake Center
Sun 01:22:57 PM 48.6514 -109.6992 101° East 515 593 33,000  Level Salt Lake Center
Sun 01:23:58 PM 48.6244 -109.4878 101° East 514 592 33,000  Level Salt Lake Center
Sun 01:25:00 PM 48.5983 -109.2764 101° East 513 590 33,000  Level Salt Lake Center
Sun 01:26:01 PM 48.5711 -109.0642 101° East 514 592 33,000  Level Salt Lake Center
Sun 01:27:03 PM 48.5406 -108.8506 102° East 517 595 33,000  Level Salt Lake Center
Sun 01:28:04 PM 48.5042 -108.5956 102° East 519 597 33,000 -49 Level Salt Lake Center
Sun 01:29:06 PM 48.4750 -108.3867 102° East 514 592 32,900  Descending Salt Lake Center
Sun 01:30:07 PM 48.4469 -108.1781 101° East 510 587 33,000 49 Climbing Salt Lake Center
Sun 01:31:09 PM 48.4161 -107.9694 102° East 511 588 33,000  Level Salt Lake Center
Sun 01:32:10 PM 48.3869 -107.7589 102° East 514 592 33,000  Level Salt Lake Center
Sun 01:33:12 PM 48.3567 -107.5508 102° East 512 589 33,000  Level Salt Lake Center
Sun 01:34:13 PM 48.3194 -107.3158 103° East 513 590 33,000  Level Salt Lake Center
Sun 01:35:15 PM 48.2892 -107.1081 102° East 512 589 33,000  Level Salt Lake Center
Sun 01:36:17 PM 48.2572 -106.9033 103° East 507 583 33,000  Level Salt Lake Center
Sun 01:37:18 PM 48.2256 -106.6986 103° East 506 582 33,000  Level Salt Lake Center
Sun 01:38:20 PM 48.1986 -106.4914 101° East 508 585 33,000  Level Salt Lake Center
Sun 01:39:22 PM 48.1775 -106.2831 99° East 508 585 33,000  Level Salt Lake Center
Sun 01:40:23 PM 48.1550 -106.0758 99° East 506 582 33,000  Level Salt Lake Center
Sun 01:41:25 PM 48.1289 -105.8272 99° East 505 581 33,000  Level Salt Lake Center
Sun 01:42:27 PM 48.1056 -105.6206 100° East 505 581 33,000  Level Salt Lake Center
Sun 01:43:28 PM 48.0833 -105.4133 99° East 506 582 33,000  Level Salt Lake Center
Sun 01:44:30 PM 48.0592 -105.2072 100° East 506 582 33,000  Level Salt Lake Center
Sun 01:45:32 PM 48.0356 -105.0003 100° East 506 582 33,000 -49 Level Salt Lake Center
Sun 01:46:33 PM 48.0106 -104.7953 100° East 504 580 32,900  Descending Salt Lake Center
Sun 01:47:35 PM 47.9878 -104.5908 99° East 502 578 33,000 48 Climbing Salt Lake Center
Sun 01:48:37 PM 47.9553 -104.3475 101° East 501 577 33,000  Level Salt Lake Center
Sun 01:49:39 PM 47.9294 -104.1467 101° East 498 573 33,000  Level Salt Lake Center
Sun 01:50:41 PM 47.9044 -103.9433 100° East 495 570 33,000  Level Salt Lake Center
Sun 01:51:42 PM 47.8786 -103.7403 101° East 494 568 33,000  Level Salt Lake Center
Sun 01:52:44 PM 47.8517 -103.5386 101° East 491 565 33,000  Level Salt Lake Center
Sun 01:53:46 PM 47.8247 -103.3367 101° East 492 566 33,000  Level Salt Lake Center
Sun 01:54:48 PM 47.7986 -103.1389 101° East 489 563 33,000 194 Level Salt Lake Center
Sun 01:55:50 PM 47.7728 -102.9417 101° East 488 562 33,400 700 Climbing Salt Lake Center
Sun 01:56:48 PM 47.7447 -102.7469 102° East 484 557 34,400 800 Climbing Minneapolis Center
Sun 01:57:50 PM 47.7189 -102.5533 101° East 479 551 35,000 244 Climbing Minneapolis Center
Sun 01:58:51 PM 47.6914 -102.3558 102° East 485 558 34,900  Descending Minneapolis Center
Sun 01:59:53 PM 47.6603 -102.1581 103° East 490 564 35,000 49 Climbing Minneapolis Center
Sun 02:00:54 PM 47.6283 -101.9217 101° East 489 563 35,000  Level Minneapolis Center
Sun 02:01:56 PM 47.5986 -101.7236 102° East 490 564 35,000  Level Minneapolis Center
Sun 02:02:58 PM 47.5706 -101.5297 102° East 485 558 35,000  Level Minneapolis Center
Sun 02:03:59 PM 47.5411 -101.3333 102° East 487 560 35,000  Level Minneapolis Center
Sun 02:05:01 PM 47.5136 -101.1408 102° East 482 555 35,000  Level Minneapolis Center
Sun 02:06:02 PM 47.4825 -100.9403 103° East 478 550 35,000  Level Minneapolis Center
Sun 02:07:04 PM 47.4525 -100.7506 103° East 477 549 35,000  Level Minneapolis Center
Sun 02:08:05 PM 47.4214 -100.5600 103° East 478 550 35,000  Level Minneapolis Center
Sun 02:09:07 PM 47.3872 -100.3692 105° East 482 555 35,000  Level Minneapolis Center
Sun 02:10:09 PM 47.3508 -100.1450 103° East 473 544 35,000  Level Minneapolis Center
Sun 02:11:10 PM 47.3194 -99.9564 104° East 474 545 35,000  Level Minneapolis Center
Sun 02:12:12 PM 47.2875 -99.7667 104° East 478 550 35,000  Level Minneapolis Center
Sun 02:13:13 PM 47.2544 -99.5772 104° East 480 552 35,000 -49 Level Minneapolis Center
Sun 02:14:15 PM 47.2228 -99.3894 104° East 477 549 34,900  Descending Minneapolis Center
Sun 02:15:17 PM 47.1903 -99.2008 104° East 476 548 35,000 49 Climbing Minneapolis Center
Sun 02:16:18 PM 47.1569 -99.0131 105° East 479 551 35,000  Level Minneapolis Center
Sun 02:17:20 PM 47.1178 -98.7881 104° East 477 549 35,000  Level Minneapolis Center
Sun 02:18:21 PM 47.0847 -98.6042 105° East 473 544 35,000  Level Minneapolis Center
Sun 02:19:23 PM 47.0514 -98.4211 105° East 471 542 35,000  Level Minneapolis Center
Sun 02:20:25 PM 47.0186 -98.2406 105° East 466 536 35,000  Level Minneapolis Center
Sun 02:21:26 PM 46.9850 -98.0567 105° East 469 540 35,000  Level Minneapolis Center
Sun 02:22:28 PM 46.9519 -97.8747 105° East 469 540 35,000  Level Minneapolis Center
Sun 02:23:30 PM 46.9103 -97.6572 106° East 468 539 35,000  Level Minneapolis Center
Sun 02:24:31 PM 46.8756 -97.4742 105° East 471 542 35,000  Level Minneapolis Center
Sun 02:25:33 PM 46.8389 -97.2908 106° East 472 543 35,000  Level Minneapolis Center
Sun 02:26:47 PM 46.8044 -97.1089 105° East 469 540 35,000  Level Minneapolis Center
Sun 02:27:49 PM 46.7622 -96.8908 106° East 469 540 35,000  Level Minneapolis Center
Sun 02:28:51 PM 46.7003 -96.7278 119° Southeast 464 534 35,000  Level Minneapolis Center
Sun 02:29:52 PM 46.6183 -96.5422 123° Southeast 458 527 35,000  Level Minneapolis Center
Sun 02:30:54 PM 46.5494 -96.3853 123° Southeast 460 529 35,000  Level Minneapolis Center
Sun 02:31:56 PM 46.4789 -96.2286 123° Southeast 464 534 35,000  Level Minneapolis Center
Sun 02:32:58 PM 46.4111 -96.0725 122° Southeast 462 532 35,000  Level Minneapolis Center
Sun 02:33:59 PM 46.3400 -95.9172 124° Southeast 463 533 35,000  Level Minneapolis Center
Sun 02:35:01 PM 46.2653 -95.7469 122° Southeast 462 532 35,000  Level Minneapolis Center
Sun 02:36:03 PM 46.1947 -95.5925 123° Southeast 460 529 35,000  Level Minneapolis Center
Sun 02:37:05 PM 46.1242 -95.4389 123° Southeast 459 528 35,000  Level Minneapolis Center
Sun 02:38:06 PM 46.0542 -95.2847 123° Southeast 460 529 35,000  Level Minneapolis Center
Sun 02:39:08 PM 45.9692 -95.1000 123° Southeast 462 532 35,000  Level Minneapolis Center
Sun 02:40:10 PM 45.9075 -94.9672 124° Southeast 459 528 35,000  Level Minneapolis Center
Sun 02:41:12 PM 45.8358 -94.8133 124° Southeast 463 533 35,000  Level Minneapolis Center
Sun 02:42:13 PM 45.7508 -94.6292 123° Southeast 464 534 35,000  Level Minneapolis Center
Sun 02:43:15 PM 45.6786 -94.4786 124° Southeast 463 533 35,000  Level Minneapolis Center
Sun 02:44:17 PM 45.6067 -94.3275 124° Southeast 461 531 35,000  Level Minneapolis Center
Sun 02:45:18 PM 45.5342 -94.1756 124° Southeast 464 534 35,000  Level Minneapolis Center
Sun 02:46:20 PM 45.4622 -94.0253 124° Southeast 461 531 35,000  Level Minneapolis Center
Sun 02:47:22 PM 45.3903 -93.8747 124° Southeast 462 532 35,000  Level Minneapolis Center
Sun 02:48:24 PM 45.3178 -93.7253 125° Southeast 460 529 35,000  Level Minneapolis Center
Sun 02:49:25 PM 45.2308 -93.5461 125° Southeast 461 531 35,000  Level Minneapolis Center
Sun 02:50:27 PM 45.1575 -93.3967 125° Southeast 461 531 35,000  Level Minneapolis Center
Sun 02:51:29 PM 45.0869 -93.2439 123° Southeast 465 535 35,000  Level Minneapolis Center
Sun 02:52:30 PM 45.0289 -93.0744 116° Southeast 475 547 35,000  Level Minneapolis Center
Sun 02:53:32 PM 44.9686 -92.9094 117° Southeast 469 540 35,000  Level Minneapolis Center
Sun 02:54:34 PM 44.9342 -92.7272 105° East 479 551 35,000  Level Minneapolis Center
Sun 02:55:35 PM 44.8986 -92.5447 105° East 481 554 35,000  Level Minneapolis Center
Sun 02:56:37 PM 44.8631 -92.3650 106° East 479 551 35,000  Level Minneapolis Center
Sun 02:57:39 PM 44.8272 -92.1839 106° East 479 551 35,000  Level Minneapolis Center
Sun 02:58:40 PM 44.7844 -91.9703 106° East 476 548 35,000  Level Minneapolis Center
Sun 02:59:42 PM 44.7475 -91.7906 106° East 478 550 35,000  Level Minneapolis Center
Sun 03:00:43 PM 44.7111 -91.6111 106° East 479 551 35,000  Level Minneapolis Center
Sun 03:01:45 PM 44.6742 -91.4325 106° East 479 551 35,000  Level Minneapolis Center
Sun 03:02:46 PM 44.6369 -91.2539 106° East 479 551 35,000  Level Minneapolis Center
Sun 03:03:48 PM 44.5992 -91.0775 107° East 476 548 35,000  Level Minneapolis Center
Sun 03:04:50 PM 44.5572 -90.8803 107° East 476 548 35,000  Level Minneapolis Center
Sun 03:05:51 PM 44.5183 -90.7028 107° East 475 547 35,000  Level Minneapolis Center
Sun 03:06:53 PM 44.4803 -90.5250 107° East 478 550 35,000  Level Minneapolis Center
Sun 03:08:06 PM 44.4303 -90.2897 106° East 474 545 35,000  Level Minneapolis Center
Sun 03:09:08 PM 44.3906 -90.1119 107° East 475 547 35,000  Level Minneapolis Center
Sun 03:10:09 PM 44.3508 -89.9356 107° East 476 548 35,000  Level Minneapolis Center
Sun 03:11:11 PM 44.3117 -89.7583 107° East 476 548 35,000  Level Minneapolis Center
Sun 03:12:12 PM 44.2714 -89.5822 108° East 475 547 35,000  Level Minneapolis Center
Sun 03:13:13 PM 44.2317 -89.4083 108° East 472 543 35,000  Level Minneapolis Center
Sun 03:14:15 PM 44.1906 -89.2311 108° East 477 549 35,000  Level Minneapolis Center
Sun 03:15:16 PM 44.1569 -89.0828 107° East 479 551 35,000  Level Minneapolis Center
Sun 03:16:18 PM 44.1083 -88.8761 108° East 480 552 35,000  Level Minneapolis Center
Sun 03:17:19 PM 44.0597 -88.6697 108° East 479 551 35,000  Level Minneapolis Center
Sun 03:18:20 PM 44.0169 -88.4931 109° East 480 552 35,000  Level Minneapolis Center
Sun 03:19:22 PM 43.9747 -88.3156 108° East 481 554 35,000  Level Minneapolis Center
Sun 03:20:23 PM 43.9319 -88.1389 109° East 480 552 35,000  Level Minneapolis Center
Sun 03:21:25 PM 43.8894 -87.9642 109° East 476 548 35,000  Level Minneapolis Center
Sun 03:22:26 PM 43.8458 -87.7889 109° East 478 550 35,000 -344 Level Minneapolis Center
Sun 03:23:27 PM 43.8025 -87.6128 109° East 480 552 34,300 -778 Descending Minneapolis Center
Sun 03:24:14 PM 43.7664 -87.4664 109° East 481 554 33,600 -716 Descending Chicago Center
Sun 03:25:16 PM 43.7292 -87.3181 109° East 481 554 33,000 -356 Descending Chicago Center
Sun 03:25:55 PM 43.6928 -87.1792 110° East 479 551 33,000  Level Chicago Center
Sun 03:26:31 PM 43.6678 -87.0744 108° East 479 551 33,000  Level Minneapolis Center
Sun 03:27:33 PM 43.6233 -86.9022 110° East 478 550 33,000 -349 Level Minneapolis Center
Sun 03:27:57 PM 43.6081 -86.8317 107° East 481 554 32,500 -2,023 Descending Chicago Center
Sun 03:28:59 PM 43.5714 -86.6536 106° East 481 554 30,100 -2,143 Descending Chicago Center
Sun 03:29:35 PM 43.5483 -86.5442 106° East 485 558 29,000 -1,531 Descending Minneapolis Center
Sun 03:30:37 PM 43.5092 -86.3661 107° East 485 558 27,600 -1,295 Descending Minneapolis Center
Sun 03:31:03 PM 43.4931 -86.2933 107° East 483 556 27,100 -1,432 Descending Chicago Center
Sun 03:32:05 PM 43.4539 -86.1239 108° East 476 548 25,500 -1,306 Descending Chicago Center
Sun 03:33:07 PM 43.4081 -85.9150 107° East 473 544 24,400 -884 Descending Chicago Center
Sun 03:33:40 PM 43.3917 -85.8442 108° East 474 545 24,100 -677 Descending Minneapolis Center
Sun 03:34:09 PM 43.3686 -85.7433 107° East 468 539 23,700 -659 Descending Chicago Center
Sun 03:35:11 PM 43.3300 -85.5717 107° East 465 535 23,100 -339 Descending Chicago Center
Sun 03:36:13 PM 43.2903 -85.4044 108° East 462 532 23,000 -53 Descending Chicago Center
Sun 03:37:04 PM 43.2575 -85.2647 108° East 477 549 23,000  Level Cleveland Center
Sun 03:38:04 PM 43.2244 -85.0994 105° East 459 528 23,000  Level Cleveland Center
Sun 03:39:04 PM 43.1933 -84.9292 104° East 459 528 23,000  Level Cleveland Center
Sun 03:40:04 PM 43.1600 -84.7589 105° East 459 528 23,000 -700 Level Cleveland Center
Sun 03:41:04 PM 43.1158 -84.5967 110° East 459 528 21,600 -1,823 Descending Cleveland Center
Sun 03:41:23 PM 43.0972 -84.5347 112° Southeast 459 528 20,600 -2,593 Descending Chicago Center
Sun 03:42:25 PM 43.0481 -84.3833 114° Southeast 438 504 18,100 -2,020 Descending Chicago Center
Sun 03:43:04 PM 43.0175 -84.2947 115° Southeast 430 495 17,200 -2,500 Descending Cleveland Center
Sun 03:43:49 PM 42.9775 -84.1703 114° Southeast 413 475 14,600 -2,800 Descending Cleveland Center
Sun 03:44:04 PM 42.9697 -84.1528 121° Southeast 424 488 14,400 -1,440 Descending Cleveland Center
Sun 03:45:04 PM 42.9281 -84.0200 113° Southeast 410 472 12,800 -1,109 Descending Cleveland Center
Sun 03:46:03 PM 42.8858 -83.8931 114° Southeast 310 357 12,200 -400 Descending Cleveland Center
Sun 03:47:04 PM 42.8550 -83.7978 114° Southeast 326 375 12,000 -195 Descending Cleveland Center
Sun 03:48:06 PM 42.7931 -83.7042 132° Southeast 305 351 11,800 -500 Descending Cleveland Center
Sun 03:49:04 PM 42.7272 -83.6725 161° South 278 320 11,000 -1,200 Descending Cleveland Center
Sun 03:50:01 PM 42.6483 -83.6242 156° South 285 328 9,500 -1,481 Descending FAA TRACON SMA TRACON (SMA)
Sun 03:50:21 PM 42.6269 -83.6097 154° Southeast 279 321 9,100 -1,400 Descending FAA TRACON SMA TRACON (SMA)
Sun 03:51:01 PM 42.6008 -83.5481 120° Southeast 274 315 8,100 -1,500 Descending FAA TRACON SMA TRACON (SMA)
Sun 03:51:21 PM 42.5914 -83.5192 114° Southeast 270 311 7,600 -1,317 Descending FAA TRACON SMA TRACON (SMA)
Sun 03:51:42 PM 42.5783 -83.4939 125° Southeast 259 298 7,200 -1,463 Descending FAA TRACON SMA TRACON (SMA)
Sun 03:52:02 PM 42.5592 -83.4661 133° Southeast 263 303 6,600 -1,200 Descending FAA TRACON SMA TRACON (SMA)
Sun 03:52:22 PM 42.5433 -83.4439 134° Southeast 264 304 6,400 -600 Descending FAA TRACON SMA TRACON (SMA)
Sun 03:52:42 PM 42.5281 -83.4211 132° Southeast 263 303 6,200 -450 Descending FAA TRACON SMA TRACON (SMA)
Sun 03:53:02 PM 42.5128 -83.3992 133° Southeast 259 298 6,100 -308 Descending FAA TRACON SMA TRACON (SMA)
Sun 03:53:21 PM 42.4947 -83.3742 134° Southeast 230 265 6,000 -615 Descending FAA TRACON SMA TRACON (SMA)
Sun 03:53:41 PM 42.4817 -83.3564 135° Southeast 212 244 5,700 -1,050 Descending FAA TRACON SMA TRACON (SMA)
Sun 03:54:01 PM 42.4694 -83.3383 133° Southeast 210 242 5,300 -1,350 Descending FAA TRACON SMA TRACON (SMA)
Sun 03:54:21 PM 42.4519 -83.3186 140° Southeast 212 244 4,800 -1,350 Descending FAA TRACON SMA TRACON (SMA)
Sun 03:54:41 PM 42.4356 -83.3094 158° South 209 241 4,400 -1,200 Descending FAA TRACON SMA TRACON (SMA)
Sun 03:55:01 PM 42.4178 -83.3064 173° South 191 220 4,000 -492 Descending FAA TRACON SMA TRACON (SMA)
Sun 03:55:42 PM 42.3750 -83.3014 175° South 206 237 3,900 -197 Descending FAA TRACON SMA TRACON (SMA)
Sun 03:56:02 PM 42.3608 -83.3003 177° South 175 201 3,800 -900 Descending FAA TRACON SMA TRACON (SMA)
Sun 03:56:22 PM 42.3431 -83.2983 175° South 177 204 3,300 -1,350 Descending FAA TRACON SMA TRACON (SMA)
Sun 03:56:42 PM 42.3256 -83.2989 181° South 176 203 2,900 -1,077 Descending FAA TRACON SMA TRACON (SMA)
Sun 03:57:01 PM 42.3125 -83.3044 197° South 175 201 2,600 -769 Descending FAA TRACON SMA TRACON (SMA)
Sun 03:57:21 PM 42.2953 -83.3158 206° Southwest 179 206 2,400 -450 Descending FAA TRACON SMA TRACON (SMA)
Sun 03:57:41 PM 42.2828 -83.3247 208° Southwest 181 208 2,300 -732 Descending FAA TRACON SMA TRACON (SMA)
Sun 03:58:02 PM 42.2675 -83.3361 209° Southwest 165 190 1,900 -1,171 Descending FAA TRACON SMA TRACON (SMA)
Sun 03:58:22 PM 42.2550 -83.3453 208° Southwest 146 168 1,500 -1,050 Descending FAA TRACON SMA TRACON (SMA)
Sun 03:58:42 PM 42.2444 -83.3528 208° Southwest 144 166 1,200 -900 Descending FAA TRACON SMA TRACON (SMA)
Sun 03:59:02 PM 42.2322 -83.3619 209° Southwest 140 161 900 -750 Descending FAA TRACON SMA TRACON (SMA)
Sun 03:59:22 PM 42.2225 -83.3692 209° Southwest 137 158 700 -300 Descending FAA TRACON SMA TRACON (SMA)
Sun 03:59:42 PM 42.2136 -83.3756 208° Southwest 67 77 700  Level FAA TRACON SMA TRACON (SMA)
Sun 04:00:21 PM 42.2136 -83.3756 71° East 67 77 700  Level FAA TRACON SMA TRACON (SMA)

Login

Don't have an account? Register now (free) for customized features, flight alerts, and more!